Apalachicola, Florida
Current Conditions -  °F | °C
As of 11:53 PM on Sunday 19 Oct 2014 (Local Time) from KAAF Reporting Station
Clear Clear  
Wind Chill: 16°   Ceiling: Unl
Heat Index: 16°   Visibility: 10mi
Dew Point: 12°   Wind: 3mph
Humidity: 80%   Direction: 50°NE
Pressure: 30.07"   Gusts: NA
Location:  29.73°N, 84.99°W
Report Text: KAAF 200353Z AUTO 05003KT 10SM CLR 16/12 A3007 RMK AO2 SLP182 T01560122 TSNO
Loading
Personal Weather Stations






























Interactive Weather Map
Tropical Storm Tracking
New forecast layout! Learn more

10-Day Weather Forecast

Advertisements
Track Severe Weather on mobile